createdAt,value
2022-08-10T00:01:54.558Z,100725.72
2022-08-10T00:04:25.265Z,100726.84
2022-08-10T00:06:55.608Z,100728.46
2022-08-10T00:09:26.048Z,100729.84
2022-08-10T00:11:55.388Z,100725.67
2022-08-10T00:14:24.470Z,100722.68
2022-08-10T00:16:53.765Z,100721.67
2022-08-10T00:19:23.137Z,100726.69
2022-08-10T00:21:52.221Z,100724.98
2022-08-10T00:24:21.553Z,100729.48
2022-08-10T00:27:57.817Z,100734.25
2022-08-10T00:29:40.687Z,100734.59
2022-08-10T00:32:10.452Z,100734.21
2022-08-10T00:34:39.510Z,100734.06
2022-08-10T00:37:09.182Z,100736.95
2022-08-10T00:39:39.420Z,100741.86
2022-08-10T00:42:10.468Z,100737.52
2022-08-10T00:44:41.664Z,100732.19
2022-08-10T00:47:36.452Z,100729.98
2022-08-10T00:50:02.267Z,100741.34
2022-08-10T00:52:33.769Z,100739.76
2022-08-10T00:55:04.541Z,100741.34
2022-08-10T01:00:42.608Z,100749.89
2022-08-10T01:03:12.291Z,100753.05
2022-08-10T01:05:52.007Z,100751.58
2022-08-10T01:08:32.135Z,100753.88
2022-08-10T01:12:37.657Z,100758.27
2022-08-10T01:14:07.510Z,100760.16
2022-08-10T01:16:53.263Z,100761.15
2022-08-10T01:19:41.168Z,100760.83
2022-08-10T01:22:29.168Z,100762.26
2022-08-10T01:26:10.551Z,100765.51
2022-08-10T01:28:42.303Z,100761.61
2022-08-10T01:31:16.435Z,100764.22
2022-08-10T01:33:58.921Z,100770.02
2022-08-10T01:36:35.365Z,100767.77
2022-08-10T01:39:06.726Z,100770.97
2022-08-10T01:41:46.628Z,100776.52
2022-08-10T01:44:20.352Z,100781.20
2022-08-10T01:46:56.674Z,100786.99
2022-08-10T01:49:28.553Z,100794.54
2022-08-10T01:52:01.143Z,100802.24
2022-08-10T01:54:32.236Z,100808.05
2022-08-10T01:57:04.105Z,100814.96
2022-08-10T01:59:36.506Z,100826.99
2022-08-10T02:02:15.186Z,100832.91
2022-08-10T02:04:50.581Z,100842.73
2022-08-10T02:07:31.675Z,100845.93
2022-08-10T02:10:09.702Z,100841.35
2022-08-10T02:12:43.350Z,100842.50
2022-08-10T02:15:16.767Z,100845.05
2022-08-10T02:17:57.454Z,100847.76
2022-08-10T02:20:34.621Z,100846.67
2022-08-10T02:23:08.610Z,100850.73
2022-08-10T02:25:43.866Z,100852.47
2022-08-10T02:28:29.748Z,100850.77
2022-08-10T02:31:06.410Z,100849.51
2022-08-10T02:33:38.136Z,100847.28
2022-08-10T02:36:11.798Z,100848.60
2022-08-10T02:38:59.117Z,100843.21
2022-08-10T02:45:12.566Z,100847.66
2022-08-10T02:45:22.065Z,100846.13
2022-08-10T02:47:50.884Z,100844.98
2022-08-10T02:50:27.392Z,100844.38
2022-08-10T02:53:01.734Z,100843.51
2022-08-10T02:55:35.816Z,100842.25
2022-08-10T02:58:13.877Z,100839.03
2022-08-10T03:00:53.261Z,100837.24
2022-08-10T03:03:25.524Z,100841.77
2022-08-10T03:06:02.347Z,100848.48
2022-08-10T03:08:41.065Z,100852.04
2022-08-10T03:11:18.932Z,100859.24
2022-08-10T03:14:10.973Z,100858.63
2022-08-10T03:16:41.746Z,100858.08
2022-08-10T03:20:34.807Z,100860.34
2022-08-10T03:22:04.944Z,100868.45
2022-08-10T03:24:35.876Z,100869.42
2022-08-10T03:27:06.670Z,100861.10
2022-08-10T03:30:28.194Z,100859.95
2022-08-10T03:32:26.793Z,100861.77
2022-08-10T03:34:57.294Z,100864.01
2022-08-10T03:37:28.529Z,100864.82
2022-08-10T03:39:58.066Z,100863.25
2022-08-10T03:42:28.555Z,100861.24
2022-08-10T03:45:02.307Z,100867.36
2022-08-10T03:47:34.009Z,100869.57
2022-08-10T03:50:27.813Z,100871.30
2022-08-10T03:52:54.731Z,100874.41
2022-08-10T03:56:29.461Z,100880.42
2022-08-10T03:58:14.797Z,100880.08
2022-08-10T04:00:50.726Z,100875.13
2022-08-10T04:03:20.250Z,100876.29
2022-08-10T04:05:49.460Z,100883.84
2022-08-10T04:08:25.715Z,100892.49
2022-08-10T04:10:55.410Z,100894.30
2022-08-10T04:13:24.670Z,100895.25
2022-08-10T04:16:00.983Z,100891.64
2022-08-10T04:18:43.118Z,100894.09
2022-08-10T04:21:16.109Z,100893.59
2022-08-10T04:23:53.236Z,100897.30
2022-08-10T04:26:23.061Z,100896.34
2022-08-10T04:28:52.626Z,100897.32
2022-08-10T04:31:27.290Z,100898.65
2022-08-10T04:33:59.510Z,100902.02
2022-08-10T04:36:40.584Z,100899.22
2022-08-10T04:39:10.833Z,100898.38
2022-08-10T04:41:46.057Z,100897.46
2022-08-10T04:44:16.794Z,100897.82
2022-08-10T04:46:58.361Z,100893.77
2022-08-10T04:49:55.276Z,100889.11
2022-08-10T04:52:18.894Z,100884.38
2022-08-10T04:54:48.489Z,100880.86
2022-08-10T04:57:20.313Z,100879.14
2022-08-10T04:59:58.066Z,100878.74
2022-08-10T05:02:32.305Z,100876.98
2022-08-10T05:05:02.376Z,100878.66
2022-08-10T05:07:33.124Z,100880.23
2022-08-10T05:10:23.505Z,100885.09
2022-08-10T05:12:54.021Z,100891.56
2022-08-10T05:15:28.347Z,100891.50
2022-08-10T05:18:08.401Z,100889.27
2022-08-10T05:20:41.011Z,100888.64
2022-08-10T05:23:10.686Z,100891.96
2022-08-10T05:25:40.191Z,100891.92
2022-08-10T05:28:10.429Z,100890.13
2022-08-10T05:30:39.970Z,100894.08
2022-08-10T05:33:09.646Z,100895.10
2022-08-10T05:35:56.602Z,100894.70
2022-08-10T05:38:28.558Z,100896.45
2022-08-10T05:40:58.601Z,100901.36
2022-08-10T05:43:28.335Z,100900.40
2022-08-10T05:46:19.451Z,100900.09
2022-08-10T05:48:59.549Z,100898.95
2022-08-10T05:51:30.911Z,100898.88
2022-08-10T05:54:06.175Z,100900.51
2022-08-10T05:56:55.903Z,100901.85
2022-08-10T06:00:10.673Z,100898.98
2022-08-10T06:02:33.116Z,100901.63
2022-08-10T06:05:09.297Z,100901.45
2022-08-10T06:07:46.996Z,100903.05
2022-08-10T06:10:31.910Z,100903.62
2022-08-10T06:13:29.987Z,100901.52
2022-08-10T06:16:08.993Z,100903.35
2022-08-10T06:18:38.273Z,100905.05
2022-08-10T06:21:09.058Z,100902.37
2022-08-10T06:23:39.738Z,100904.19
2022-08-10T06:26:14.718Z,100907.22
2022-08-10T06:29:03.288Z,100906.06
2022-08-10T06:31:48.289Z,100906.80
2022-08-10T06:34:24.601Z,100908.86
2022-08-10T06:36:55.508Z,100915.13
2022-08-10T06:39:34.900Z,100909.52
2022-08-10T06:42:16.012Z,100910.86
2022-08-10T06:44:54.623Z,100910.11
2022-08-10T06:47:29.169Z,100913.70
2022-08-10T06:50:08.535Z,100912.78
2022-08-10T06:52:40.663Z,100915.31
2022-08-10T06:55:16.933Z,100916.27
2022-08-10T06:57:59.891Z,100915.68
2022-08-10T07:00:37.213Z,100914.73
2022-08-10T07:03:13.869Z,100914.27
2022-08-10T07:05:51.281Z,100915.36
2022-08-10T07:08:23.038Z,100913.02
2022-08-10T07:14:17.434Z,100907.88
2022-08-10T07:16:42.737Z,100907.31
2022-08-10T07:19:13.870Z,100910.80
2022-08-10T07:21:47.859Z,100908.96
2022-08-10T07:24:20.725Z,100912.86
2022-08-10T07:26:54.710Z,100910.26
2022-08-10T07:29:53.319Z,100916.36
2022-08-10T07:32:22.459Z,100921.27
2022-08-10T07:34:55.959Z,100923.40
2022-08-10T07:37:29.150Z,100919.85
2022-08-10T07:40:04.799Z,100918.75
2022-08-10T07:42:36.460Z,100925.27
2022-08-10T07:45:07.528Z,100927.98
2022-08-10T07:47:52.643Z,100929.56
2022-08-10T07:50:25.249Z,100936.35
2022-08-10T07:52:58.217Z,100937.64
2022-08-10T07:56:03.965Z,100940.20
2022-08-10T07:58:19.566Z,100941.85
2022-08-10T08:00:53.488Z,100938.53
2022-08-10T08:03:25.010Z,100939.54
2022-08-10T08:06:02.581Z,100939.97
2022-08-10T08:08:38.207Z,100939.09
2022-08-10T08:11:08.296Z,100938.75
2022-08-10T08:13:39.581Z,100939.94
2022-08-10T08:16:21.409Z,100940.92
2022-08-10T08:19:23.616Z,100941.27
2022-08-10T08:24:06.052Z,100941.60
2022-08-10T08:24:38.124Z,100942.02
2022-08-10T08:27:10.745Z,100941.86
2022-08-10T08:29:44.981Z,100946.08
2022-08-10T08:32:16.412Z,100944.59
2022-08-10T08:34:47.067Z,100945.11
2022-08-10T08:38:33.610Z,100945.77
2022-08-10T08:40:16.080Z,100947.20
2022-08-10T08:43:22.250Z,100945.56
2022-08-10T08:46:38.239Z,100948.41
2022-08-10T08:49:41.482Z,100947.96
2022-08-10T08:52:48.810Z,100950.14
2022-08-10T08:55:50.236Z,100952.08
2022-08-10T08:58:58.611Z,100949.18
2022-08-10T09:02:00.568Z,100950.10
2022-08-10T09:05:17.278Z,100955.77
2022-08-10T09:08:05.626Z,100955.52
2022-08-10T09:10:50.410Z,100952.80
2022-08-10T09:13:28.857Z,100951.85
2022-08-10T09:16:14.530Z,100945.64
2022-08-10T09:18:51.784Z,100948.42
2022-08-10T09:21:30.879Z,100948.56
2022-08-10T09:24:06.339Z,100952.67
2022-08-10T09:26:47.534Z,100947.35
2022-08-10T09:29:24.421Z,100951.73
2022-08-10T09:36:15.447Z,100949.42
2022-08-10T09:36:19.797Z,100945.92
2022-08-10T09:38:06.362Z,100943.85
2022-08-10T09:41:00.805Z,100944.55
2022-08-10T09:43:49.483Z,100943.10
2022-08-10T09:46:40.081Z,100942.66
2022-08-10T09:49:22.372Z,100943.06
2022-08-10T09:52:09.387Z,100939.05
2022-08-10T09:54:56.212Z,100937.30
2022-08-10T09:57:43.378Z,100936.28
2022-08-10T10:00:19.577Z,100937.00
2022-08-10T10:03:03.596Z,100939.54
2022-08-10T10:05:53.359Z,100934.66
2022-08-10T10:08:32.987Z,100936.80
2022-08-10T10:11:32.385Z,100933.80
2022-08-10T10:14:17.822Z,100941.21
2022-08-10T10:17:03.124Z,100939.52
2022-08-10T10:19:50.519Z,100939.06
2022-08-10T10:22:34.969Z,100934.10
2022-08-10T10:25:24.950Z,100936.14
2022-08-10T10:31:45.643Z,100934.09
2022-08-10T10:34:25.702Z,100931.70
2022-08-10T10:36:56.944Z,100929.05
2022-08-10T10:39:27.492Z,100922.02
2022-08-10T10:42:14.600Z,100920.96
2022-08-10T10:45:06.304Z,100920.30
2022-08-10T10:47:55.768Z,100913.16
2022-08-10T10:50:35.174Z,100912.70
2022-08-10T10:53:13.794Z,100912.80
2022-08-10T10:56:14.598Z,100913.36
2022-08-10T10:58:48.874Z,100910.42
2022-08-10T11:01:36.462Z,100909.73
2022-08-10T11:04:23.094Z,100909.69
2022-08-10T11:07:03.494Z,100909.30
2022-08-10T11:10:04.917Z,100910.26
2022-08-10T11:12:43.552Z,100907.98
2022-08-10T11:15:22.221Z,100903.23
2022-08-10T11:18:04.593Z,100898.58
2022-08-10T11:20:43.986Z,100893.13
2022-08-10T11:23:23.470Z,100893.73
2022-08-10T11:26:05.968Z,100893.70
2022-08-10T11:28:45.302Z,100892.92
2022-08-10T11:31:27.595Z,100896.54
2022-08-10T11:34:47.136Z,100897.53
2022-08-10T11:37:09.668Z,100895.88
2022-08-10T11:39:48.595Z,100893.44
2022-08-10T11:42:35.666Z,100888.08
2022-08-10T11:45:13.663Z,100885.99
2022-08-10T11:47:51.918Z,100886.55
2022-08-10T11:50:25.711Z,100885.22
2022-08-10T11:53:10.308Z,100880.84
2022-08-10T11:55:40.265Z,100880.30
2022-08-10T11:58:34.093Z,100886.02
2022-08-10T12:01:09.173Z,100882.33
2022-08-10T12:03:41.710Z,100878.80
2022-08-10T12:06:53.669Z,100876.80
2022-08-10T12:10:11.000Z,100873.52
2022-08-10T12:12:11.099Z,100870.92
2022-08-10T12:14:48.504Z,100868.38
2022-08-10T12:17:24.228Z,100868.02
2022-08-10T12:20:04.133Z,100869.08
2022-08-10T12:22:55.102Z,100863.09
2022-08-10T12:25:56.523Z,100863.60
2022-08-10T12:28:49.277Z,100861.95
2022-08-10T12:31:27.193Z,100858.18
2022-08-10T12:34:14.605Z,100853.56
2022-08-10T12:36:48.196Z,100854.02
2022-08-10T12:39:25.358Z,100850.36
2022-08-10T12:42:06.108Z,100848.09
2022-08-10T12:44:55.014Z,100846.45
2022-08-10T12:47:41.238Z,100841.59
2022-08-10T12:50:30.877Z,100842.19
2022-08-10T12:53:08.047Z,100841.60
2022-08-10T12:55:40.536Z,100842.05
2022-08-10T12:58:59.691Z,100841.70
2022-08-10T13:01:16.922Z,100829.92
2022-08-10T13:04:20.978Z,100835.78
2022-08-10T13:06:45.749Z,100832.71
2022-08-10T13:09:21.509Z,100831.23
2022-08-10T13:12:36.257Z,100827.77
2022-08-10T13:14:50.906Z,100827.52
2022-08-10T13:17:38.958Z,100819.08
2022-08-10T13:20:18.383Z,100813.77
2022-08-10T13:22:52.497Z,100807.14
2022-08-10T13:25:29.323Z,100810.52
2022-08-10T13:28:36.087Z,100807.54
2022-08-10T13:30:55.945Z,100806.41
2022-08-10T13:34:40.999Z,100803.58
2022-08-10T13:36:31.015Z,100801.21
2022-08-10T13:39:01.952Z,100798.23
2022-08-10T13:41:35.601Z,100797.05
2022-08-10T13:44:06.968Z,100799.46
2022-08-10T13:46:39.882Z,100797.70
2022-08-10T13:49:10.653Z,100798.05
2022-08-10T13:51:54.552Z,100795.80
2022-08-10T13:54:36.154Z,100796.49
2022-08-10T13:57:06.615Z,100792.72
2022-08-10T14:00:34.193Z,100785.09
2022-08-10T14:02:31.381Z,100787.39
2022-08-10T14:05:01.821Z,100793.18
2022-08-10T14:07:33.999Z,100788.22
2022-08-10T14:10:07.394Z,100785.71
2022-08-10T14:12:41.694Z,100788.56
2022-08-10T14:15:14.980Z,100790.65
2022-08-10T14:17:48.294Z,100801.80
2022-08-10T14:20:21.769Z,100796.59
2022-08-10T14:22:51.281Z,100805.26
2022-08-10T14:25:20.702Z,100820.98
2022-08-10T14:28:03.516Z,100818.44
2022-08-10T14:30:35.130Z,100813.63
2022-08-10T14:33:07.837Z,100811.91
2022-08-10T14:36:20.315Z,100807.52
2022-08-10T14:38:35.622Z,100808.55
2022-08-10T14:41:14.463Z,100804.42
2022-08-10T14:44:08.286Z,100801.51
2022-08-10T14:46:45.296Z,100792.35
2022-08-10T14:49:26.676Z,100787.25
2022-08-10T14:52:02.688Z,100790.16
2022-08-10T14:54:33.910Z,100792.27
2022-08-10T14:57:11.230Z,100792.03
2022-08-10T15:00:22.819Z,100795.16
2022-08-10T15:02:39.038Z,100795.86
2022-08-10T15:05:22.051Z,100800.27
2022-08-10T15:07:59.383Z,100798.89
2022-08-10T15:10:29.469Z,100801.12
2022-08-10T15:12:59.576Z,100802.06
2022-08-10T15:15:31.251Z,100806.05
2022-08-10T15:18:26.412Z,100803.20
2022-08-10T15:20:58.238Z,100805.70
2022-08-10T15:23:32.286Z,100810.65
2022-08-10T15:26:10.759Z,100811.48
2022-08-10T15:29:23.655Z,100809.77
2022-08-10T15:31:55.984Z,100811.62
2022-08-10T15:34:44.319Z,100810.16
2022-08-10T15:37:40.795Z,100808.85
2022-08-10T15:40:25.131Z,100807.52
2022-08-10T15:43:05.784Z,100808.16
2022-08-10T15:46:14.591Z,100807.54
2022-08-10T15:48:53.026Z,100805.63
2022-08-10T15:51:33.786Z,100804.45
2022-08-10T15:54:33.541Z,100804.00
2022-08-10T15:57:08.146Z,100800.46
2022-08-10T15:59:44.925Z,100796.59
2022-08-10T16:02:18.740Z,100800.48
2022-08-10T16:04:52.373Z,100803.39
2022-08-10T16:07:46.271Z,100809.08
2022-08-10T16:10:28.453Z,100815.20
2022-08-10T16:13:01.738Z,100813.14
2022-08-10T16:15:33.377Z,100818.71
2022-08-10T16:18:08.452Z,100813.89
2022-08-10T16:20:52.353Z,100821.90
2022-08-10T16:23:28.991Z,100827.69
2022-08-10T16:26:05.161Z,100828.39
2022-08-10T16:28:48.315Z,100833.48
2022-08-10T16:31:22.105Z,100839.61
2022-08-10T16:33:55.301Z,100840.30
2022-08-10T16:36:33.727Z,100837.20
2022-08-10T16:39:04.568Z,100842.33
2022-08-10T16:42:03.201Z,100842.73
2022-08-10T16:44:31.488Z,100842.92
2022-08-10T16:47:02.187Z,100844.48
2022-08-10T16:49:37.141Z,100838.68
2022-08-10T16:52:09.310Z,100835.27
2022-08-10T16:54:41.604Z,100836.35
2022-08-10T16:57:14.024Z,100842.35
2022-08-10T16:59:45.165Z,100840.13
2022-08-10T17:02:17.506Z,100845.39
2022-08-10T17:04:50.040Z,100847.86
2022-08-10T17:07:30.441Z,100848.74
2022-08-10T17:10:07.450Z,100859.63
2022-08-10T17:12:39.567Z,100860.70
2022-08-10T17:15:12.812Z,100864.56
2022-08-10T17:17:45.184Z,100865.17
2022-08-10T17:20:30.197Z,100876.58
2022-08-10T17:23:06.094Z,100869.23
2022-08-10T17:25:45.695Z,100874.15
2022-08-10T17:28:32.866Z,100878.80
2022-08-10T17:31:42.218Z,100885.23
2022-08-10T17:34:16.785Z,100884.33
2022-08-10T17:36:59.993Z,100882.71
2022-08-10T17:39:38.646Z,100881.66
2022-08-10T17:42:12.327Z,100890.67
2022-08-10T17:44:43.146Z,100895.21
2022-08-10T17:47:13.207Z,100899.98
2022-08-10T17:49:43.895Z,100900.64
2022-08-10T17:52:21.082Z,100901.09
2022-08-10T17:54:56.404Z,100903.33
2022-08-10T17:57:27.683Z,100898.67
2022-08-10T18:00:03.452Z,100901.89
2022-08-10T18:02:36.737Z,100904.64
2022-08-10T18:05:11.853Z,100908.80
2022-08-10T18:07:57.780Z,100909.84
2022-08-10T18:10:28.346Z,100919.97
2022-08-10T18:12:59.487Z,100923.28
2022-08-10T18:15:37.745Z,100931.67
2022-08-10T18:18:16.394Z,100934.57
2022-08-10T18:20:51.286Z,100941.38
2022-08-10T18:23:27.455Z,100947.25
2022-08-10T18:26:02.800Z,100943.63
2022-08-10T18:28:36.470Z,100942.84
2022-08-10T18:31:07.778Z,100948.12
2022-08-10T18:33:47.149Z,100947.89
2022-08-10T18:36:19.276Z,100949.80
2022-08-10T18:38:53.081Z,100949.00
2022-08-10T18:41:30.722Z,100949.74
2022-08-10T18:44:12.123Z,100951.86
2022-08-10T18:46:47.604Z,100950.33
2022-08-10T18:49:26.547Z,100952.81
2022-08-10T18:52:01.923Z,100951.05
2022-08-10T18:54:44.505Z,100947.93
2022-08-10T18:57:32.757Z,100943.48
2022-08-10T19:00:12.480Z,100936.65
2022-08-10T19:03:10.770Z,100941.31
2022-08-10T19:06:16.481Z,100935.97
2022-08-10T19:09:46.258Z,100934.48
2022-08-10T19:12:29.977Z,100942.28
2022-08-10T19:15:15.828Z,100939.44
2022-08-10T19:18:05.593Z,100936.79
2022-08-10T19:20:48.604Z,100933.92
2022-08-10T19:23:37.847Z,100926.05
2022-08-10T19:26:43.683Z,100925.90
2022-08-10T19:30:09.187Z,100924.92
2022-08-10T19:32:28.622Z,100925.25
2022-08-10T19:35:07.501Z,100915.23
2022-08-10T19:37:45.025Z,100911.71
2022-08-10T19:40:44.070Z,100913.27
2022-08-10T19:43:59.612Z,100905.27
2022-08-10T19:46:19.510Z,100904.80
2022-08-10T19:48:58.052Z,100896.42
2022-08-10T19:51:34.127Z,100898.20
2022-08-10T19:54:14.564Z,100902.21
2022-08-10T19:57:01.054Z,100900.41
2022-08-10T20:00:16.910Z,100896.73
2022-08-10T20:02:32.451Z,100892.69
2022-08-10T20:05:10.049Z,100889.81
2022-08-10T20:07:50.007Z,100893.48
2022-08-10T20:10:28.886Z,100901.98
2022-08-10T20:13:07.758Z,100900.23
2022-08-10T20:15:42.809Z,100902.60
2022-08-10T20:18:21.671Z,100901.68
2022-08-10T20:20:59.080Z,100904.90
2022-08-10T20:23:33.810Z,100909.41
2022-08-10T20:26:13.085Z,100903.99
2022-08-10T20:28:47.176Z,100902.02
2022-08-10T20:31:22.786Z,100905.95
2022-08-10T20:34:01.371Z,100902.72
2022-08-10T20:36:34.045Z,100905.00
2022-08-10T20:39:13.732Z,100905.76
2022-08-10T20:41:57.376Z,100905.36
2022-08-10T20:44:43.977Z,100901.30
2022-08-10T20:47:20.976Z,100898.61
2022-08-10T20:50:01.857Z,100897.33
2022-08-10T20:52:37.478Z,100901.90
2022-08-10T20:55:11.766Z,100901.48
2022-08-10T20:58:01.054Z,100899.76
2022-08-10T21:00:47.033Z,100899.67
2022-08-10T21:03:42.833Z,100898.41
2022-08-10T21:06:45.875Z,100900.64
2022-08-10T21:09:38.749Z,100893.83
2022-08-10T21:12:51.040Z,100898.90
2022-08-10T21:15:41.700Z,100895.90
2022-08-10T21:18:30.781Z,100897.60
2022-08-10T21:21:09.464Z,100896.30
2022-08-10T21:23:51.872Z,100894.48
2022-08-10T21:26:46.455Z,100891.40
2022-08-10T21:29:37.857Z,100892.27
2022-08-10T21:32:23.896Z,100889.81
2022-08-10T21:35:08.376Z,100886.02
2022-08-10T21:37:56.622Z,100884.29
2022-08-10T21:41:18.747Z,100883.20
2022-08-10T21:44:19.321Z,100882.48
2022-08-10T21:47:27.193Z,100882.33
2022-08-10T21:50:27.954Z,100879.68
2022-08-10T21:53:43.538Z,100878.38
2022-08-10T21:56:41.258Z,100873.49
2022-08-10T21:59:42.014Z,100872.59
2022-08-10T22:02:34.336Z,100870.45
2022-08-10T22:05:23.420Z,100867.77
2022-08-10T22:08:29.339Z,100862.75
2022-08-10T22:11:20.146Z,100861.17
2022-08-10T22:14:10.553Z,100862.82
2022-08-10T22:17:59.843Z,100860.59
2022-08-10T22:20:25.119Z,100861.86
2022-08-10T22:23:30.713Z,100858.80
2022-08-10T22:26:29.486Z,100859.61
2022-08-10T22:29:24.847Z,100862.02
2022-08-10T22:32:21.051Z,100862.80
2022-08-10T22:35:34.962Z,100859.61
2022-08-10T22:38:51.458Z,100858.29
2022-08-10T22:41:57.205Z,100858.05
2022-08-10T22:44:52.407Z,100854.33
2022-08-10T22:47:42.357Z,100854.20
2022-08-10T22:50:17.543Z,100855.10
2022-08-10T22:52:57.293Z,100852.40
2022-08-10T22:56:04.101Z,100849.40
2022-08-10T22:58:40.287Z,100848.11
2022-08-10T23:01:38.691Z,100846.61
2022-08-10T23:04:16.748Z,100844.27
2022-08-10T23:06:59.168Z,100847.95
2022-08-10T23:09:29.293Z,100847.63
2022-08-10T23:12:05.442Z,100843.77
2022-08-10T23:14:38.349Z,100846.59
2022-08-10T23:18:01.817Z,100847.20
2022-08-10T23:20:27.034Z,100838.76
2022-08-10T23:23:09.506Z,100841.27
2022-08-10T23:26:25.846Z,100843.48
2022-08-10T23:29:24.656Z,100841.63
2022-08-10T23:36:29.523Z,100846.33
2022-08-10T23:38:32.806Z,100844.23
2022-08-10T23:41:09.508Z,100846.02
2022-08-10T23:46:38.952Z,100846.48
2022-08-10T23:49:11.043Z,100847.32
2022-08-10T23:51:56.503Z,100844.77
2022-08-10T23:54:28.257Z,100849.31
2022-08-10T23:57:01.798Z,100851.09
2022-08-10T23:59:35.936Z,100853.71
